Time;durP1;ratioP1;P1;durP2;ratioP2;P2;SDS_P1;SDS_P2;PMS_P1;PMS_P2;Temp;Humidity;BMP_temperature;BMP_pressure;BME280_temperature;BME280_humidity;BME280_pressure;Samples;Min_cycle;Max_cycle;Signal;HPM_P1;HPM_P2
2023/06/24 00:01:43;;;;;;;23.50;15.93;;;;;;;-144.73;100.00;54407.69;4991400;28;20165;-73
2023/06/24 00:04:08;;;;;;;29.48;15.25;;;;;;;-144.73;100.00;54420.00;4984030;28;20153;-72
2023/06/24 00:06:34;;;;;;;26.20;15.10;;;;;;;-144.73;100.00;54378.97;5001702;28;20053;-73
2023/06/24 00:09:02;;;;;;;27.90;16.17;;;;;;;-144.73;100.00;54440.53;4984558;28;20033;-70
2023/06/24 00:11:29;;;;;;;27.05;15.70;;;;;;;-144.73;100.00;54409.75;5007319;28;20040;-70
2023/06/24 00:13:55;;;;;;;23.73;15.80;;;;;;;-144.73;100.00;54399.50;4992427;28;20024;-71
2023/06/24 00:16:26;;;;;;;32.33;16.15;;;;;;;-144.73;100.00;54420.00;4987261;28;20017;-71
2023/06/24 00:18:53;;;;;;;21.42;14.93;;;;;;;-144.73;100.00;54424.13;4980819;28;20096;-72
2023/06/24 00:21:19;;;;;;;23.30;15.85;;;;;;;-144.73;100.00;54370.75;4995495;28;20019;-71
2023/06/24 00:23:44;;;;;;;23.40;15.60;;;;;;;-144.73;100.00;54424.13;4997343;28;20026;-71
2023/06/24 00:26:10;;;;;;;28.08;15.02;;;;;;;-144.73;100.00;54411.81;4985328;28;20026;-70
2023/06/24 00:28:36;;;;;;;28.58;15.75;;;;;;;-144.73;100.00;54389.22;4979422;28;21018;-71
2023/06/24 00:31:02;;;;;;;26.10;16.35;;;;;;;-144.73;100.00;54428.22;4985398;28;20117;-70
2023/06/24 00:33:28;;;;;;;34.95;16.73;;;;;;;-144.73;100.00;54436.44;5000931;28;20037;-71
2023/06/24 00:35:54;;;;;;;29.02;16.90;;;;;;;-144.73;100.00;54417.97;4983272;28;20022;-71
2023/06/24 00:38:20;;;;;;;28.60;16.42;;;;;;;-144.73;100.00;54442.59;4986684;28;20030;-70
2023/06/24 00:40:46;;;;;;;22.85;15.20;;;;;;;-144.73;100.00;54395.38;4980956;28;20025;-70
2023/06/24 00:43:11;;;;;;;24.58;17.02;;;;;;;-144.73;100.00;54415.91;4989534;28;20042;-71
2023/06/24 00:45:37;;;;;;;27.85;17.73;;;;;;;-144.73;100.00;54409.75;4999035;28;20101;-71
2023/06/24 00:48:03;;;;;;;26.00;16.33;;;;;;;-144.73;100.00;54420.00;4998322;28;20101;-71
2023/06/24 00:50:28;;;;;;;27.60;18.40;;;;;;;-144.73;100.00;54407.69;5014841;28;20017;-71
2023/06/24 00:52:54;;;;;;;34.05;18.95;;;;;;;-144.73;100.00;54391.28;5014403;28;20034;-69
2023/06/24 00:55:20;;;;;;;22.48;15.98;;;;;;;-144.73;100.00;54407.69;5007492;28;20079;-71
2023/06/24 00:57:51;;;;;;;29.88;18.20;;;;;;;-144.73;100.00;54407.69;5014956;28;20029;-71
2023/06/24 01:00:19;;;;;;;29.10;17.83;;;;;;;-144.73;100.00;54407.69;4992950;28;20026;-70
2023/06/24 01:02:47;;;;;;;24.60;18.25;;;;;;;-144.73;100.00;54444.66;4989621;28;20141;-70
2023/06/24 01:05:14;;;;;;;22.35;15.05;;;;;;;-144.73;100.00;54440.53;4997911;28;20033;-69
2023/06/24 01:07:40;;;;;;;28.38;17.70;;;;;;;-144.73;100.00;54452.84;5015121;28;20048;-71
2023/06/24 01:10:07;;;;;;;30.77;18.25;;;;;;;-144.73;100.00;54420.00;4997453;28;20052;-70
2023/06/24 01:12:39;;;;;;;26.27;17.60;;;;;;;-144.73;100.00;54391.28;5014426;28;20038;-71
2023/06/24 01:15:06;;;;;;;;;;;;;;;-144.73;100.00;54407.69;4978425;28;20033;-71
2023/06/24 01:17:54;;;;;;;30.65;18.83;;;;;;;-144.73;100.00;54407.69;5009774;28;19941;-69
2023/06/24 01:20:29;;;;;;;35.85;19.77;;;;;;;-144.73;100.00;54446.69;4978107;28;20033;-71
2023/06/24 01:23:13;;;;;;;36.22;21.02;;;;;;;-144.73;100.00;54436.44;5004393;28;20030;-70
2023/06/24 01:26:10;;;;;;;28.80;17.35;;;;;;;-144.73;100.00;54424.13;4988152;28;20121;-71
2023/06/24 01:29:13;;;;;;;33.63;16.75;;;;;;;-144.73;100.00;54420.00;5003352;28;20042;-71
2023/06/24 01:31:50;;;;;;;30.35;19.13;;;;;;;-144.73;100.00;54432.31;4995775;28;20033;-71
2023/06/24 01:34:32;;;;;;;27.80;18.77;;;;;;;-144.73;100.00;54420.00;4991187;28;20375;-71
2023/06/24 01:37:03;;;;;;;32.17;18.30;;;;;;;-144.73;100.00;54424.13;4991330;28;20033;-69
2023/06/24 01:39:32;;;;;;;39.30;17.77;;;;;;;-144.73;100.00;54395.38;4990291;28;20034;-71
2023/06/24 01:42:08;;;;;;;35.00;16.85;;;;;;;-144.73;100.00;54469.28;4997111;28;20068;-71
2023/06/24 01:44:35;;;;;;;28.92;18.20;;;;;;;-144.73;100.00;54428.22;5014703;28;20033;-71
2023/06/24 01:47:04;;;;;;;29.42;17.83;;;;;;;-144.73;100.00;54420.00;5014450;28;20026;-70
2023/06/24 01:49:33;;;;;;;30.63;16.50;;;;;;;-144.73;100.00;54428.22;4997546;28;20160;-71
2023/06/24 01:52:00;;;;;;;33.40;19.23;;;;;;;-144.73;100.00;54420.00;5009965;28;20026;-71
2023/06/24 01:54:28;;;;;;;31.77;16.38;;;;;;;-144.73;100.00;54415.91;5002099;28;20090;-71
2023/06/24 01:56:57;;;;;;;27.80;17.80;;;;;;;-144.73;100.00;54395.38;5005714;28;20096;-70
2023/06/24 01:59:23;;;;;;;37.05;18.60;;;;;;;-144.73;100.00;54417.97;5013864;28;20487;-71
2023/06/24 02:01:51;;;;;;;26.63;16.85;;;;;;;-144.73;100.00;54415.91;4992795;28;20042;-71
2023/06/24 02:04:18;;;;;;;35.13;17.85;;;;;;;-144.73;100.00;54407.69;5008562;28;20033;-70
2023/06/24 02:06:44;;;;;;;25.35;15.35;;;;;;;-144.73;100.00;54399.50;5011228;28;20048;-70
2023/06/24 02:09:10;;;;;;;35.17;16.45;;;;;;;-144.73;100.00;54407.69;5006410;28;20026;-70
2023/06/24 02:11:38;;;;;;;23.67;14.95;;;;;;;-144.73;100.00;54440.53;5011393;28;20040;-70
2023/06/24 02:14:05;;;;;;;26.85;15.98;;;;;;;-144.73;100.00;54432.31;4999287;28;20028;-71
2023/06/24 02:16:33;;;;;;;27.85;17.67;;;;;;;-144.73;100.00;54436.44;5014556;28;20026;-70
2023/06/24 02:18:58;;;;;;;28.48;16.20;;;;;;;-144.73;100.00;54440.53;4995103;28;20026;-70
2023/06/24 02:21:25;;;;;;;28.67;15.20;;;;;;;-144.73;100.00;54444.66;5001750;28;20030;-71
2023/06/24 02:23:51;;;;;;;25.75;17.25;;;;;;;-144.73;100.00;54436.44;4997327;28;20429;-71
2023/06/24 02:26:18;;;;;;;30.85;16.20;;;;;;;-144.73;100.00;54477.47;5013751;28;20128;-70
2023/06/24 02:28:47;;;;;;;31.60;16.20;;;;;;;-144.73;100.00;54436.44;5000358;28;20114;-71
2023/06/24 02:31:13;;;;;;;36.45;20.10;;;;;;;-144.73;100.00;54448.75;5012744;28;20029;-71
2023/06/24 02:33:39;;;;;;;33.28;18.63;;;;;;;-144.73;100.00;54448.75;5014508;28;20098;-71
2023/06/24 02:36:04;;;;;;;29.33;17.92;;;;;;;-144.73;100.00;54411.81;4993858;28;20057;-71
2023/06/24 02:38:29;;;;;;;30.70;18.90;;;;;;;-144.73;100.00;54469.28;4996450;28;20041;-70
2023/06/24 02:40:56;;;;;;;29.40;16.67;;;;;;;-144.73;100.00;54436.44;4999003;28;20026;-71
2023/06/24 02:43:21;;;;;;;29.50;16.13;;;;;;;-144.73;100.00;54428.22;5017239;28;20172;-69
2023/06/24 02:45:48;;;;;;;28.20;17.17;;;;;;;-144.73;100.00;54473.38;5016258;28;20049;-71
2023/06/24 02:48:17;;;;;;;28.80;16.77;;;;;;;-144.73;100.00;54407.69;4997318;28;20506;-70
2023/06/24 02:50:44;;;;;;;28.35;16.77;;;;;;;-144.73;100.00;54469.28;5008373;28;20542;-70
2023/06/24 02:53:11;;;;;;;31.30;15.82;;;;;;;-144.73;100.00;54448.75;5010110;28;20108;-71
2023/06/24 02:55:39;;;;;;;29.40;17.25;;;;;;;-144.73;100.00;54452.84;5016546;28;20108;-71
2023/06/24 02:58:07;;;;;;;27.40;16.67;;;;;;;-144.73;100.00;54424.13;5010377;28;20037;-71
2023/06/24 03:00:34;;;;;;;29.10;17.70;;;;;;;-144.73;100.00;54415.91;5017111;28;20032;-71
2023/06/24 03:03:01;;;;;;;27.45;17.30;;;;;;;-144.73;100.00;54395.38;4998097;28;20034;-71
2023/06/24 03:05:29;;;;;;;28.95;17.20;;;;;;;-144.73;100.00;54407.69;5010097;28;20026;-71
2023/06/24 03:07:54;;;;;;;25.80;15.60;;;;;;;-144.73;100.00;54456.97;4991181;28;20030;-71
2023/06/24 03:10:22;;;;;;;24.15;15.63;;;;;;;-144.73;100.00;54514.44;5016245;28;20026;-71
2023/06/24 03:12:48;;;;;;;26.48;16.67;;;;;;;-144.73;100.00;54440.53;5007297;28;20072;-71
2023/06/24 03:15:13;;;;;;;29.75;18.92;;;;;;;-144.73;100.00;54411.81;5009852;28;20030;-70
2023/06/24 03:17:38;;;;;;;29.10;18.17;;;;;;;-144.73;100.00;54430.28;4988394;28;20034;-71
2023/06/24 03:20:05;;;;;;;34.05;19.42;;;;;;;-144.73;100.00;54424.13;4993067;28;20036;-70
2023/06/24 03:22:30;;;;;;;36.15;17.73;;;;;;;-144.73;100.00;54436.44;5000385;28;20053;-72
2023/06/24 03:24:56;;;;;;;37.42;18.80;;;;;;;-144.73;100.00;54432.31;5005073;28;20057;-70
2023/06/24 03:27:22;;;;;;;29.55;16.45;;;;;;;-144.73;100.00;54448.75;5004961;28;20046;-70
2023/06/24 03:29:47;;;;;;;27.35;16.60;;;;;;;-144.73;100.00;54434.38;4994963;28;20022;-71
2023/06/24 03:32:13;;;;;;;28.85;16.42;;;;;;;-144.73;100.00;54438.50;4993877;28;20059;-71
2023/06/24 03:34:38;;;;;;;24.88;14.60;;;;;;;-144.73;100.00;54411.81;4998080;28;20026;-71
2023/06/24 03:37:04;;;;;;;28.50;14.75;;;;;;;-144.73;100.00;54469.28;5008412;28;20076;-71
2023/06/24 03:39:29;;;;;;;31.33;15.80;;;;;;;-144.73;100.00;54415.91;5017035;28;20079;-70
2023/06/24 03:41:55;;;;;;;28.88;16.30;;;;;;;-144.73;100.00;54432.31;5014001;28;20040;-70
2023/06/24 03:44:20;;;;;;;24.55;16.23;;;;;;;-144.73;100.00;54448.75;4991314;28;20026;-71
2023/06/24 03:46:45;;;;;;;24.55;16.58;;;;;;;-144.73;100.00;54428.22;5005590;28;20030;-70
2023/06/24 03:49:11;;;;;;;26.58;16.48;;;;;;;-144.73;100.00;54456.97;4988608;28;20104;-70
2023/06/24 03:51:36;;;;;;;29.02;16.30;;;;;;;-144.73;100.00;54407.69;5004910;28;20026;-70
2023/06/24 03:54:01;;;;;;;25.70;15.18;;;;;;;-144.73;100.00;54424.13;4987926;28;20113;-71
2023/06/24 03:56:27;;;;;;;28.42;15.50;;;;;;;-144.73;100.00;54440.53;4986097;28;20434;-71
2023/06/24 03:58:57;;;;;;;26.42;15.48;;;;;;;-144.73;100.00;54452.84;4991822;28;20021;-71
2023/06/24 04:01:22;;;;;;;28.33;16.00;;;;;;;-144.73;100.00;54432.31;4992455;28;20113;-71
2023/06/24 04:03:48;;;;;;;31.73;15.38;;;;;;;-144.73;100.00;54440.53;5006587;28;20120;-70
2023/06/24 04:06:13;;;;;;;34.35;16.83;;;;;;;-144.73;100.00;54407.69;5011890;28;20042;-70
2023/06/24 04:08:43;;;;;;;30.30;17.25;;;;;;;-144.73;100.00;54465.16;4995237;28;20033;-71
2023/06/24 04:11:09;;;;;;;22.85;14.95;;;;;;;-144.73;100.00;54424.13;5004437;28;20023;-71
2023/06/24 04:13:35;;;;;;;24.67;16.65;;;;;;;-144.73;100.00;54440.53;4991620;28;20034;-70
2023/06/24 04:16:01;;;;;;;25.70;15.77;;;;;;;-144.73;100.00;54417.97;4997927;28;20026;-71
2023/06/24 04:18:26;;;;;;;24.08;15.85;;;;;;;-144.73;100.00;54469.28;5008025;28;20033;-69
2023/06/24 04:20:52;;;;;;;28.10;14.85;;;;;;;-144.73;100.00;54469.28;4998283;28;20030;-71
2023/06/24 04:23:17;;;;;;;25.67;14.57;;;;;;;-144.73;100.00;54436.44;5002981;28;20042;-70
2023/06/24 04:25:43;;;;;;;27.55;14.82;;;;;;;-144.73;100.00;54461.06;4983268;28;20081;-69
2023/06/24 04:28:08;;;;;;;28.08;13.90;;;;;;;-144.73;100.00;54407.69;5005136;28;20052;-70
2023/06/24 04:30:38;;;;;;;33.30;14.75;;;;;;;-144.73;100.00;54436.44;4987914;28;20018;-70
2023/06/24 04:33:04;;;;;;;28.55;14.45;;;;;;;-144.73;100.00;54415.91;4983454;28;20045;-71
2023/06/24 04:35:30;;;;;;;19.23;12.57;;;;;;;-144.73;100.00;54407.69;4998070;28;20029;-71
2023/06/24 04:37:55;;;;;;;21.17;11.40;;;;;;;-144.73;100.00;54456.97;5004584;28;20045;-70
2023/06/24 04:40:21;;;;;;;18.05;11.02;;;;;;;-144.73;100.00;54411.81;5003760;28;20018;-71
2023/06/24 04:42:46;;;;;;;19.35;11.88;;;;;;;-144.73;100.00;54456.97;4992786;28;20053;-71
2023/06/24 04:45:12;;;;;;;15.27;10.05;;;;;;;-144.73;100.00;54452.84;5008464;28;20029;-70
2023/06/24 04:47:37;;;;;;;21.52;9.93;;;;;;;-144.73;100.00;54428.22;4992720;28;20042;-70
2023/06/24 04:50:03;;;;;;;21.13;9.77;;;;;;;-144.73;100.00;54395.38;5008010;28;20056;-71
2023/06/24 04:52:29;;;;;;;22.38;9.23;;;;;;;-144.73;100.00;54452.84;4997849;28;20076;-70
2023/06/24 04:54:54;;;;;;;19.95;9.52;;;;;;;-144.73;100.00;54436.44;4989280;28;20018;-70
2023/06/24 04:57:26;;;;;;;22.65;9.90;;;;;;;-144.73;100.00;54420.00;5004439;28;20026;-71
2023/06/24 04:59:51;;;;;;;15.90;9.27;;;;;;;-144.73;100.00;54432.31;5013403;28;20089;-71
2023/06/24 05:02:16;;;;;;;19.08;9.73;;;;;;;-144.73;100.00;54440.53;4993296;28;20057;-70
2023/06/24 05:04:42;;;;;;;20.33;9.75;;;;;;;-144.73;100.00;54448.75;5001858;28;20056;-71
2023/06/24 05:07:07;;;;;;;18.70;8.10;;;;;;;-144.73;100.00;54481.59;4991002;28;20077;-71
2023/06/24 05:09:32;;;;;;;11.80;7.45;;;;;;;-144.73;100.00;54417.97;5015055;28;20026;-71
2023/06/24 05:11:58;;;;;;;18.55;8.57;;;;;;;-144.73;100.00;54383.06;4997649;28;20034;-72
2023/06/24 05:14:23;;;;;;;18.92;8.73;;;;;;;-144.73;100.00;54436.44;5015421;28;20060;-71
2023/06/24 05:16:48;;;;;;;14.25;8.50;;;;;;;-144.73;100.00;54459.00;4988126;28;20057;-72
2023/06/24 05:19:14;;;;;;;18.10;8.40;;;;;;;-144.73;100.00;54481.59;5004936;28;20049;-72
2023/06/24 05:21:40;;;;;;;13.32;8.27;;;;;;;-144.73;100.00;54456.97;4995639;28;20116;-71
2023/06/24 05:24:05;;;;;;;14.75;8.40;;;;;;;-144.73;100.00;54436.44;4998683;28;20026;-70
2023/06/24 05:26:30;;;;;;;14.45;7.40;;;;;;;-144.73;100.00;54448.75;5009311;28;20029;-72
2023/06/24 05:28:56;;;;;;;13.63;6.78;;;;;;;-144.73;100.00;54424.13;4989247;28;20070;-72
2023/06/24 05:31:21;;;;;;;17.35;6.63;;;;;;;-144.73;100.00;54432.31;5001789;28;20142;-72
2023/06/24 05:33:46;;;;;;;12.95;6.28;;;;;;;-144.73;100.00;54434.38;4987266;28;20777;-72
2023/06/24 05:36:12;;;;;;;12.18;6.63;;;;;;;-144.73;100.00;54424.13;4980960;28;20025;-72
2023/06/24 05:38:37;;;;;;;10.05;6.63;;;;;;;-144.73;100.00;54424.13;5012679;28;20081;-72
2023/06/24 05:41:02;;;;;;;14.43;6.32;;;;;;;-144.73;100.00;54424.13;4997928;28;20060;-71
2023/06/24 05:43:28;;;;;;;18.70;6.45;;;;;;;-144.73;100.00;54440.53;5015653;28;20133;-72
2023/06/24 05:45:53;;;;;;;10.18;6.20;;;;;;;-144.73;100.00;54448.75;4998250;28;20026;-72
2023/06/24 05:48:18;;;;;;;13.30;6.22;;;;;;;-144.73;100.00;54440.53;5010146;28;20062;-72
2023/06/24 05:50:44;;;;;;;16.70;6.60;;;;;;;-144.73;100.00;54424.13;5013784;28;20022;-72
2023/06/24 05:53:09;;;;;;;12.82;5.88;;;;;;;-144.73;100.00;54411.81;4998020;28;20088;-71
2023/06/24 05:55:34;;;;;;;10.82;5.55;;;;;;;-144.73;100.00;54415.91;4993381;28;20029;-71
2023/06/24 05:58:00;;;;;;;14.60;7.05;;;;;;;-144.73;100.00;54397.44;5007559;28;20032;-71
2023/06/24 06:00:25;;;;;;;12.20;5.47;;;;;;;-144.73;100.00;54440.53;4995577;28;20030;-71
2023/06/24 06:02:51;;;;;;;14.05;5.85;;;;;;;-144.73;100.00;54448.75;4994915;28;20113;-72
2023/06/24 06:05:16;;;;;;;12.25;5.13;;;;;;;-144.73;100.00;54362.53;4995901;28;20022;-72
2023/06/24 06:07:43;;;;;;;14.27;5.45;;;;;;;-144.73;100.00;54444.66;4990217;28;20030;-72
2023/06/24 06:10:09;;;;;;;15.38;5.57;;;;;;;-144.73;100.00;54407.69;5001124;28;20029;-72
2023/06/24 06:12:34;;;;;;;11.82;5.30;;;;;;;-144.73;100.00;54407.69;4986648;28;20170;-72
2023/06/24 06:15:00;;;;;;;10.63;4.95;;;;;;;-144.73;100.00;54397.44;4993317;28;20022;-72
2023/06/24 06:17:25;;;;;;;10.95;5.40;;;;;;;-144.73;100.00;54407.69;4992096;28;20030;-70
2023/06/24 06:19:50;;;;;;;14.27;5.10;;;;;;;-144.73;100.00;54411.81;4995352;28;20030;-71
2023/06/24 06:22:16;;;;;;;18.98;5.13;;;;;;;-144.73;100.00;54387.19;5005305;28;20037;-72
2023/06/24 06:24:41;;;;;;;13.05;4.88;;;;;;;-144.73;100.00;54428.22;5012267;28;20026;-70
2023/06/24 06:27:13;;;;;;;11.77;5.15;;;;;;;-144.73;100.00;54399.50;4998870;28;20030;-69
2023/06/24 06:29:38;;;;;;;16.33;5.00;;;;;;;-144.73;100.00;54420.00;4988178;28;20049;-71
2023/06/24 06:32:04;;;;;;;11.85;5.35;;;;;;;-144.73;100.00;54436.44;4994975;28;20110;-70
2023/06/24 06:34:30;;;;;;;15.57;5.75;;;;;;;-144.73;100.00;54391.28;5011572;28;20042;-71
2023/06/24 06:36:55;;;;;;;11.57;4.90;;;;;;;-144.73;100.00;54448.75;4996199;28;20030;-71
2023/06/24 06:39:21;;;;;;;15.85;4.80;;;;;;;-144.73;100.00;54440.53;5008542;28;20014;-71
2023/06/24 06:41:46;;;;;;;12.35;5.15;;;;;;;-144.73;100.00;54387.19;4991706;28;20034;-71
2023/06/24 06:44:11;;;;;;;13.60;5.63;;;;;;;-144.73;100.00;54376.91;5007611;28;20029;-71
2023/06/24 06:46:37;;;;;;;13.25;5.75;;;;;;;-144.73;100.00;54407.69;4998823;28;20029;-71
2023/06/24 06:49:02;;;;;;;13.05;4.78;;;;;;;-144.73;100.00;54442.59;5006611;28;20023;-71
2023/06/24 06:51:28;;;;;;;13.98;4.90;;;;;;;-144.73;100.00;54411.81;5000568;28;20018;-72
2023/06/24 06:53:53;;;;;;;11.13;4.82;;;;;;;-144.73;100.00;54420.00;5013674;28;20037;-72
2023/06/24 06:56:22;;;;;;;14.98;4.90;;;;;;;-144.73;100.00;54422.06;4994308;28;20071;-72
2023/06/24 06:58:47;;;;;;;8.18;4.05;;;;;;;-144.73;100.00;54426.16;5011604;28;20041;-72
2023/06/24 07:01:12;;;;;;;7.72;4.10;;;;;;;-144.73;100.00;54362.53;5003831;28;20403;-69
2023/06/24 07:03:39;;;;;;;14.10;4.60;;;;;;;-144.73;100.00;54424.13;5005064;28;20110;-71
2023/06/24 07:06:05;;;;;;;10.35;4.43;;;;;;;-144.73;100.00;54409.75;4996455;28;20032;-72
2023/06/24 07:08:30;;;;;;;8.93;4.32;;;;;;;-144.73;96.98;54383.06;4984023;28;20027;-70
2023/06/24 07:10:58;;;;;;;7.85;4.05;;;;;;;-144.73;99.69;54383.06;5004734;28;20095;-71
2023/06/24 07:13:23;;;;;;;15.65;4.00;;;;;;;-144.73;100.00;54407.69;4989443;28;20029;-70
2023/06/24 07:15:48;;;;;;;8.00;4.05;;;;;;;-144.73;95.55;54407.69;4997385;28;20026;-72
2023/06/24 07:18:14;;;;;;;11.00;4.07;;;;;;;-144.73;99.18;54383.06;4994690;28;20030;-71
2023/06/24 07:20:39;;;;;;;7.00;3.92;;;;;;;-144.73;98.22;54374.84;5005792;28;20022;-71
2023/06/24 07:23:04;;;;;;;9.75;4.05;;;;;;;-144.73;96.36;54424.13;4987695;28;20372;-71
2023/06/24 07:25:30;;;;;;;7.45;4.15;;;;;;;-144.73;97.52;54391.28;4990105;28;20026;-70
2023/06/24 07:27:56;;;;;;;9.55;4.20;;;;;;;-144.73;99.76;54387.19;4989055;28;20034;-70
2023/06/24 07:30:21;;;;;;;12.55;4.38;;;;;;;-144.73;96.58;54354.34;4992878;28;20440;-71
2023/06/24 07:32:49;;;;;;;8.63;3.90;;;;;;;-144.73;93.49;54362.53;5007870;28;20069;-71
2023/06/24 07:35:16;;;;;;;10.30;4.10;;;;;;;-144.73;90.00;54362.53;4993892;28;20029;-71
2023/06/24 07:37:41;;;;;;;11.13;4.25;;;;;;;-144.73;86.13;54346.13;4994663;28;20030;-71
2023/06/24 07:40:07;;;;;;;10.23;3.85;;;;;;;-144.73;83.41;54366.66;4996286;28;20088;-70
2023/06/24 07:42:33;;;;;;;6.68;3.60;;;;;;;-144.73;84.78;54342.03;4995767;28;20029;-71
2023/06/24 07:44:58;;;;;;;8.93;3.25;;;;;;;-144.73;80.91;54362.53;4994936;28;20026;-72
2023/06/24 07:47:24;;;;;;;7.50;3.30;;;;;;;-144.73;78.35;54374.84;4995384;28;20033;-72
2023/06/24 07:49:49;;;;;;;11.32;3.55;;;;;;;-144.73;78.51;54354.34;4995265;28;20028;-71
2023/06/24 07:52:14;;;;;;;7.65;2.88;;;;;;;-144.73;73.70;54317.38;4995086;28;20471;-71
2023/06/24 07:54:41;;;;;;;13.45;3.75;;;;;;;-144.73;75.29;54374.84;4994469;28;20045;-72
2023/06/24 07:57:06;;;;;;;7.10;3.58;;;;;;;-144.73;76.02;54428.22;5010985;28;20058;-72
2023/06/24 07:59:31;;;;;;;9.77;3.55;;;;;;;-144.73;77.90;54366.66;4991798;28;20053;-71
2023/06/24 08:01:57;;;;;;;8.10;3.47;;;;;;;-144.73;74.82;54399.50;4994391;28;20193;-71
2023/06/24 08:04:22;;;;;;;7.30;3.50;;;;;;;-144.73;75.66;54362.53;4995405;28;20028;-70
2023/06/24 08:06:48;;;;;;;10.52;5.50;;;;;;;-144.73;73.76;54362.53;4993907;28;20037;-69
2023/06/24 08:09:13;;;;;;;9.57;3.65;;;;;;;-144.73;72.63;54362.53;5011160;28;20053;-70
2023/06/24 08:11:40;;;;;;;6.78;3.35;;;;;;;-144.73;72.72;54329.72;4994243;28;20056;-69
2023/06/24 08:14:05;;;;;;;7.40;3.85;;;;;;;-144.73;77.17;54337.91;4995442;28;20018;-70
2023/06/24 08:16:31;;;;;;;9.00;3.78;;;;;;;-144.73;72.35;54337.91;4995090;28;20083;-70
2023/06/24 08:18:56;;;;;;;7.75;3.83;;;;;;;-144.73;72.65;54329.72;4993134;28;20148;-69
2023/06/24 08:21:21;;;;;;;6.75;3.78;;;;;;;-144.73;70.48;54342.03;4994813;28;20219;-69
2023/06/24 08:23:49;;;;;;;6.65;3.67;;;;;;;-144.73;70.57;54350.22;4995212;28;20030;-70
2023/06/24 08:26:16;;;;;;;7.95;4.05;;;;;;;-144.73;72.21;54350.22;4995710;28;20033;-70
2023/06/24 08:28:41;;;;;;;11.98;4.13;;;;;;;-144.73;73.32;54337.91;4994631;28;20061;-70
2023/06/24 08:31:07;;;;;;;7.50;4.00;;;;;;;-144.73;75.91;54352.28;4994109;28;20030;-71
2023/06/24 08:33:32;;;;;;;9.82;4.53;;;;;;;-144.73;74.12;54360.50;4993804;28;20057;-71
2023/06/24 08:35:57;;;;;;;9.40;5.13;;;;;;;-144.73;76.34;54364.59;4993694;28;20044;-70
2023/06/24 08:38:23;;;;;;;10.35;5.07;;;;;;;-144.73;74.25;54350.22;4994048;28;20070;-71
2023/06/24 08:40:49;;;;;;;8.63;4.20;;;;;;;-144.73;73.33;54362.53;4991942;28;20028;-72
2023/06/24 08:43:15;;;;;;;10.90;5.13;;;;;;;-144.73;71.53;54313.28;4993943;28;20652;-71
2023/06/24 08:45:42;;;;;;;10.15;4.57;;;;;;;-144.73;69.50;54350.22;4978148;28;20065;-72
2023/06/24 08:48:07;;;;;;;6.80;3.83;;;;;;;-144.73;68.89;54358.44;4995941;28;20034;-72
2023/06/24 08:50:38;;;;;;;11.43;5.28;;;;;;;-144.73;71.32;54321.50;5011323;28;20045;-71
2023/06/24 08:53:09;;;;;;;13.15;5.05;;;;;;;-144.73;76.40;54317.38;4992554;28;20109;-73
2023/06/24 08:55:40;;;;;;;18.55;6.03;;;;;;;-144.73;79.58;54350.22;4995397;28;20033;-71
2023/06/24 08:58:06;;;;;;;11.25;6.15;;;;;;;-144.73;76.01;54317.38;5012976;28;20041;-72
2023/06/24 09:00:32;;;;;;;12.65;4.93;;;;;;;-144.73;76.63;54370.75;4993277;28;20022;-72
2023/06/24 09:02:58;;;;;;;10.80;5.63;;;;;;;-144.73;74.30;54333.81;4994241;28;20048;-73
2023/06/24 09:05:24;;;;;;;10.80;4.28;;;;;;;-144.73;75.22;54342.03;4994938;28;20030;-71
2023/06/24 09:07:49;;;;;;;11.23;5.03;;;;;;;-144.73;73.28;54342.03;4992885;28;20425;-71
2023/06/24 09:10:35;;;;;;;9.73;4.80;;;;;;;-144.73;70.23;54333.81;4995068;28;20026;-71
2023/06/24 09:13:02;;;;;;;8.43;4.80;;;;;;;-144.73;70.14;54358.44;4992516;28;20042;-70
2023/06/24 09:15:31;;;;;;;10.35;4.40;;;;;;;-144.73;71.14;54305.06;4991083;28;20037;-70
2023/06/24 09:17:57;;;;;;;8.57;4.25;;;;;;;-144.73;73.26;54346.13;4992507;28;20172;-72
2023/06/24 09:20:27;;;;;;;8.40;4.20;;;;;;;-144.73;70.97;54342.03;4967102;28;20132;-71
2023/06/24 09:22:57;;;;;;;7.38;4.25;;;;;;;-144.73;69.74;54321.50;5010060;28;20026;-71
2023/06/24 09:25:23;;;;;;;8.93;4.32;;;;;;;-144.73;71.30;54325.59;5011917;28;20203;-71
2023/06/24 09:27:52;;;;;;;8.63;3.88;;;;;;;-144.73;68.56;54362.53;5013403;28;20038;-71
2023/06/24 09:30:27;;;;;;;9.82;4.18;;;;;;;-144.73;67.31;54333.81;5012163;28;20140;-72
2023/06/24 09:32:54;;;;;;;8.13;4.63;;;;;;;-144.73;66.38;54309.19;4996388;28;20046;-72
2023/06/24 09:35:21;;;;;;;10.32;4.55;;;;;;;-144.73;62.76;54313.28;4995645;28;20048;-72
2023/06/24 09:37:55;;;;;;;10.77;4.80;;;;;;;-144.73;63.70;54309.19;5015455;28;20026;-72
2023/06/24 09:40:21;;;;;;;8.90;4.32;;;;;;;-144.73;65.91;54305.06;4995972;28;20038;-73
2023/06/24 09:42:58;;;;;;;8.43;4.43;;;;;;;-144.73;65.92;54362.53;4996202;28;20057;-72
2023/06/24 09:45:28;;;;;;;11.35;4.47;;;;;;;-144.73;63.48;54329.72;5012771;28;20033;-73
2023/06/24 09:47:54;;;;;;;8.23;4.40;;;;;;;-144.73;60.76;54300.97;5017597;28;20025;-73
2023/06/24 09:50:20;;;;;;;6.75;4.03;;;;;;;-144.73;61.76;54337.91;4997086;28;20038;-73
2023/06/24 09:52:47;;;;;;;6.22;4.30;;;;;;;-144.73;67.78;54362.53;4998034;28;20107;-73
2023/06/24 09:55:14;;;;;;;13.18;4.70;;;;;;;-144.73;65.28;54321.50;5001939;28;20164;-72
2023/06/24 09:57:45;;;;;;;8.02;4.22;;;;;;;-144.73;67.54;54333.81;4995678;28;20089;-72
2023/06/24 10:00:14;;;;;;;8.25;4.43;;;;;;;-144.73;66.14;54325.59;4993408;28;20030;-72
2023/06/24 10:02:40;;;;;;;17.48;4.55;;;;;;;-144.73;67.79;54305.06;5005101;28;20034;-72
2023/06/24 10:05:06;;;;;;;11.35;4.68;;;;;;;-144.73;67.56;54321.50;5008728;28;20429;-72
2023/06/24 10:07:32;;;;;;;5.25;4.18;;;;;;;-144.73;66.71;54329.72;4990483;28;20034;-73
2023/06/24 10:09:58;;;;;;;10.15;4.07;;;;;;;-144.73;63.42;54325.59;5005564;28;20069;-72
2023/06/24 10:12:26;;;;;;;6.18;3.67;;;;;;;-144.73;64.83;54321.50;4993023;28;20029;-72
2023/06/24 10:14:52;;;;;;;11.48;4.82;;;;;;;-144.73;66.96;54309.19;5007232;28;20030;-72
2023/06/24 10:17:17;;;;;;;10.93;5.32;;;;;;;-144.73;65.07;54342.03;4989112;28;20034;-72
2023/06/24 10:19:44;;;;;;;8.77;4.65;;;;;;;-144.73;61.92;54325.59;4991662;28;20038;-72
2023/06/24 10:22:11;;;;;;;7.68;3.85;;;;;;;-144.73;62.82;54325.59;4987181;28;20038;-72
2023/06/24 10:24:39;;;;;;;7.65;5.00;;;;;;;-144.73;67.24;54309.19;4988592;28;20057;-71
2023/06/24 10:27:13;;;;;;;6.22;4.03;;;;;;;-144.73;63.67;54317.38;5008670;28;20030;-73
2023/06/24 10:29:39;;;;;;;7.80;4.65;;;;;;;-144.73;63.95;54354.34;4985124;28;20515;-72
2023/06/24 10:32:06;;;;;;;9.52;4.80;;;;;;;-144.73;63.78;54292.75;4995949;28;20048;-72
2023/06/24 10:34:43;;;;;;;10.18;4.50;;;;;;;-144.73;63.51;54317.38;5011802;28;20038;-72
2023/06/24 10:37:45;;;;;;;10.13;4.53;;;;;;;-144.73;61.96;54288.66;5008395;28;20096;-73
2023/06/24 10:40:10;;;;;;;10.35;5.60;;;;;;;-144.73;59.77;54309.19;4949915;28;20140;-72
2023/06/24 10:42:36;;;;;;;11.80;4.88;;;;;;;-144.73;64.15;54292.75;5003515;28;20064;-72
2023/06/24 10:45:08;;;;;;;6.30;4.30;;;;;;;-144.73;62.13;54305.06;5010715;28;20149;-73
2023/06/24 10:47:33;;;;;;;15.70;5.45;;;;;;;-144.73;59.74;54309.19;5007358;28;20033;-72
2023/06/24 10:49:59;;;;;;;8.45;4.85;;;;;;;-144.73;58.16;54321.50;4990845;28;20038;-72
2023/06/24 10:52:24;;;;;;;11.88;5.50;;;;;;;-144.73;58.56;54296.88;4989566;28;20037;-73
2023/06/24 10:54:52;;;;;;;10.50;4.70;;;;;;;-144.73;57.49;54288.66;5006389;28;20034;-72
2023/06/24 10:57:24;;;;;;;8.93;4.70;;;;;;;-144.73;56.78;54335.88;5009504;28;20148;-72
2023/06/24 10:59:51;;;;;;;11.35;5.22;;;;;;;-144.73;60.52;54296.88;4994502;28;20034;-73
2023/06/24 11:02:18;;;;;;;10.60;5.53;;;;;;;-144.73;61.57;54325.59;5017345;28;20087;-71